Time;durP1;ratioP1;P1;durP2;ratioP2;P2;SDS_P1;SDS_P2;PMS_P1;PMS_P2;Temp;Humidity;BMP_temperature;BMP_pressure;BME280_temperature;BME280_humidity;BME280_pressure;Samples;Min_cycle;Max_cycle;Signal;HPM_P1;HPM_P2
2021/08/28 00:01:10;;;;;;;12.37;9.63;;;;;;;;;;5045099;28;20430;-74
2021/08/28 00:03:36;;;;;;;10.67;9.17;;;;;;;;;;5034659;28;20487;-72
2021/08/28 00:06:02;;;;;;;12.03;9.30;;;;;;;;;;5033855;28;20903;-73
2021/08/28 00:08:28;;;;;;;13.07;8.50;;;;;;;;;;5030020;28;20471;-72
2021/08/28 00:10:54;;;;;;;14.90;8.90;;;;;;;;;;5034620;28;20422;-73
2021/08/28 00:13:20;;;;;;;12.30;9.97;;;;;;;;;;5033298;28;20444;-72
2021/08/28 00:15:46;;;;;;;11.83;8.93;;;;;;;;;;5034123;28;20444;-73
2021/08/28 00:18:12;;;;;;;12.07;8.70;;;;;;;;;;5023622;28;20490;-72
2021/08/28 00:20:39;;;;;;;12.67;9.73;;;;;;;;;;5034436;28;20457;-73
2021/08/28 00:23:06;;;;;;;13.03;8.57;;;;;;;;;;5026184;28;20504;-71
2021/08/28 00:25:32;;;;;;;11.30;8.50;;;;;;;;;;5026945;28;20485;-71
2021/08/28 00:27:58;;;;;;;10.40;8.80;;;;;;;;;;5039647;28;20959;-73
2021/08/28 00:30:24;;;;;;;10.00;7.50;;;;;;;;;;5031913;28;20414;-71
2021/08/28 00:32:50;;;;;;;11.97;8.27;;;;;;;;;;5034424;28;20467;-72
2021/08/28 00:35:16;;;;;;;8.13;7.23;;;;;;;;;;5033689;28;20517;-71
2021/08/28 00:37:42;;;;;;;8.50;7.53;;;;;;;;;;5025547;28;20963;-71
2021/08/28 00:40:09;;;;;;;7.67;6.87;;;;;;;;;;5033363;28;20464;-72
2021/08/28 00:42:48;;;;;;;7.57;6.77;;;;;;;;;;5033461;28;20417;-74
2021/08/28 00:45:14;;;;;;;9.13;6.80;;;;;;;;;;5034335;28;20472;-73
2021/08/28 00:47:40;;;;;;;7.30;6.60;;;;;;;;;;5033126;28;20501;-75
2021/08/28 00:50:07;;;;;;;7.77;6.53;;;;;;;;;;5033693;28;20418;-74
2021/08/28 00:52:33;;;;;;;6.87;6.20;;;;;;;;;;5033565;28;20434;-73
2021/08/28 00:54:59;;;;;;;7.60;6.47;;;;;;;;;;5034016;28;20450;-75
2021/08/28 00:57:25;;;;;;;7.40;6.70;;;;;;;;;;5033193;28;22375;-74
2021/08/28 00:59:51;;;;;;;7.00;6.40;;;;;;;;;;5033829;28;20515;-73
2021/08/28 01:02:17;;;;;;;7.10;6.40;;;;;;;;;;5033388;28;20427;-73
2021/08/28 01:04:46;;;;;;;6.60;6.00;;;;;;;;;;5033560;28;20414;-71
2021/08/28 01:07:24;;;;;;;6.10;5.60;;;;;;;;;;5032118;28;20809;-73
2021/08/28 01:09:55;;;;;;;6.50;5.83;;;;;;;;;;5026797;28;20437;-71
2021/08/28 01:12:23;;;;;;;6.93;6.10;;;;;;;;;;5032626;28;20406;-73
2021/08/28 01:14:52;;;;;;;7.17;6.30;;;;;;;;;;5033196;28;20503;-75
2021/08/28 01:17:19;;;;;;;7.53;6.80;;;;;;;;;;5031762;28;20529;-72
2021/08/28 01:19:45;;;;;;;6.70;6.10;;;;;;;;;;5033020;28;20414;-75
2021/08/28 01:22:14;;;;;;;7.20;6.50;;;;;;;;;;5032266;28;20751;-74
2021/08/28 01:24:41;;;;;;;8.70;5.33;;;;;;;;;;5032213;28;20467;-74
2021/08/28 01:27:28;;;;;;;7.43;6.57;;;;;;;;;;5032152;28;20434;-72
2021/08/28 01:29:54;;;;;;;6.10;5.50;;;;;;;;;;5024727;28;20441;-72
2021/08/28 01:32:22;;;;;;;6.43;5.83;;;;;;;;;;5032347;28;20437;-72
2021/08/28 01:34:48;;;;;;;6.03;5.43;;;;;;;;;;5032185;28;20422;-73
2021/08/28 01:37:14;;;;;;;6.50;5.90;;;;;;;;;;5031924;28;20530;-71
2021/08/28 01:39:42;;;;;;;7.37;6.63;;;;;;;;;;5033417;28;20438;-73
2021/08/28 01:42:08;;;;;;;7.33;6.23;;;;;;;;;;5032231;28;20406;-74
2021/08/28 01:44:34;;;;;;;6.47;5.87;;;;;;;;;;5032173;28;20438;-73
2021/08/28 01:47:00;;;;;;;7.53;6.83;;;;;;;;;;5024256;28;20532;-74
2021/08/28 01:49:27;;;;;;;9.00;6.60;;;;;;;;;;5032077;28;20555;-73
2021/08/28 01:51:53;;;;;;;6.90;6.20;;;;;;;;;;5031919;28;20428;-72
2021/08/28 01:54:19;;;;;;;6.83;6.23;;;;;;;;;;5030733;28;20514;-73
2021/08/28 01:56:45;;;;;;;7.30;6.57;;;;;;;;;;5018680;28;20477;-73
2021/08/28 01:59:11;;;;;;;6.80;6.10;;;;;;;;;;5032360;28;20435;-73
2021/08/28 02:01:37;;;;;;;6.83;6.23;;;;;;;;;;5031599;28;20525;-73
2021/08/28 02:04:03;;;;;;;7.60;6.43;;;;;;;;;;5032033;28;20912;-70
2021/08/28 02:06:29;;;;;;;7.40;6.70;;;;;;;;;;4996097;28;1048326;-73
2021/08/28 02:08:59;;;;;;;7.50;6.43;;;;;;;;;;5027305;28;20203;-74
2021/08/28 02:11:30;;;;;;;6.80;6.20;;;;;;;;;;5027085;28;20406;-73
2021/08/28 02:13:59;;;;;;;7.97;7.17;;;;;;;;;;5033125;28;20467;-73
2021/08/28 02:16:27;;;;;;;8.63;6.50;;;;;;;;;;5035981;28;20438;-73
2021/08/28 02:18:54;;;;;;;8.90;6.90;;;;;;;;;;5032329;28;20418;-73
2021/08/28 02:21:21;;;;;;;6.97;6.37;;;;;;;;;;5032944;28;20459;-72
2021/08/28 02:24:02;;;;;;;6.53;5.93;;;;;;;;;;5032474;28;20411;-72
2021/08/28 02:26:32;;;;;;;7.23;6.20;;;;;;;;;;5031525;28;20446;-71
2021/08/28 02:29:02;;;;;;;6.90;6.20;;;;;;;;;;5032118;28;20472;-71
2021/08/28 02:31:40;;;;;;;8.07;7.27;;;;;;;;;;5033005;28;20469;-71
2021/08/28 02:34:07;;;;;;;8.30;7.07;;;;;;;;;;5037669;28;20451;-73
2021/08/28 02:36:34;;;;;;;7.70;6.10;;;;;;;;;;5046517;28;20449;-73
2021/08/28 02:39:01;;;;;;;7.83;6.30;;;;;;;;;;5032536;28;20427;-72
2021/08/28 02:41:28;;;;;;;7.77;6.80;;;;;;;;;;5032622;28;20966;-74
2021/08/28 02:43:57;;;;;;;8.23;7.43;;;;;;;;;;5032639;28;20494;-74
2021/08/28 02:46:25;;;;;;;8.20;7.43;;;;;;;;;;5027118;28;20977;-73
2021/08/28 02:48:52;;;;;;;7.80;7.10;;;;;;;;;;5032326;28;20462;-72
2021/08/28 02:51:20;;;;;;;8.57;7.77;;;;;;;;;;5032116;28;20442;-73
2021/08/28 02:53:47;;;;;;;7.83;6.43;;;;;;;;;;5032373;28;20409;-73
2021/08/28 02:56:13;;;;;;;7.27;6.57;;;;;;;;;;5032495;28;20431;-72
2021/08/28 02:58:39;;;;;;;8.27;7.37;;;;;;;;;;5052186;28;20416;-72
2021/08/28 03:01:06;;;;;;;7.63;6.80;;;;;;;;;;5029197;28;20430;-72
2021/08/28 03:03:33;;;;;;;8.93;7.87;;;;;;;;;;5032326;28;20947;-74
2021/08/28 03:05:59;;;;;;;7.23;6.53;;;;;;;;;;5033852;28;20457;-74
2021/08/28 03:08:26;;;;;;;7.50;6.40;;;;;;;;;;5034431;28;20463;-72
2021/08/28 03:10:53;;;;;;;6.90;6.20;;;;;;;;;;5033059;28;20425;-71
2021/08/28 03:13:20;;;;;;;7.40;6.00;;;;;;;;;;5036045;28;20400;-74
2021/08/28 03:15:47;;;;;;;6.70;6.10;;;;;;;;;;5035531;28;20829;-72
2021/08/28 03:18:14;;;;;;;7.60;6.30;;;;;;;;;;5035293;28;20445;-71
2021/08/28 03:20:43;;;;;;;7.57;5.97;;;;;;;;;;5035453;28;20528;-73
2021/08/28 03:23:09;;;;;;;6.07;5.47;;;;;;;;;;5035474;28;20427;-70
2021/08/28 03:25:36;;;;;;;5.80;5.30;;;;;;;;;;5035242;28;20463;-73
2021/08/28 03:28:02;;;;;;;7.43;5.60;;;;;;;;;;5037046;28;20569;-73
2021/08/28 03:30:29;;;;;;;6.10;5.50;;;;;;;;;;5033492;28;20420;-74
2021/08/28 03:32:55;;;;;;;7.90;6.70;;;;;;;;;;5034931;28;20964;-72
2021/08/28 03:35:21;;;;;;;7.33;6.43;;;;;;;;;;5035282;28;20825;-73
2021/08/28 03:37:47;;;;;;;7.20;6.50;;;;;;;;;;5034760;28;20444;-72
2021/08/28 03:40:14;;;;;;;7.00;6.30;;;;;;;;;;5034734;28;20486;-74
2021/08/28 03:42:40;;;;;;;6.87;6.17;;;;;;;;;;5038293;28;20419;-73
2021/08/28 03:45:07;;;;;;;6.57;5.97;;;;;;;;;;5035283;28;20424;-73
2021/08/28 03:47:35;;;;;;;6.33;5.60;;;;;;;;;;5034671;28;20428;-73
2021/08/28 03:50:01;;;;;;;6.60;6.00;;;;;;;;;;5028871;28;20465;-72
2021/08/28 03:52:27;;;;;;;6.07;5.50;;;;;;;;;;5041446;28;20455;-73
2021/08/28 03:54:53;;;;;;;7.60;6.20;;;;;;;;;;5035514;28;20445;-71
2021/08/28 03:57:19;;;;;;;7.10;6.40;;;;;;;;;;5046184;28;20439;-72
2021/08/28 03:59:45;;;;;;;7.17;6.43;;;;;;;;;;5041833;28;21361;-72
2021/08/28 04:02:11;;;;;;;7.90;6.90;;;;;;;;;;5034882;28;20837;-73
2021/08/28 04:04:37;;;;;;;7.50;6.80;;;;;;;;;;5034801;28;20893;-73
2021/08/28 04:07:03;;;;;;;9.30;8.30;;;;;;;;;;5028792;28;20442;-71
2021/08/28 04:09:29;;;;;;;9.40;7.60;;;;;;;;;;5019409;28;20453;-73
2021/08/28 04:11:55;;;;;;;7.67;6.87;;;;;;;;;;5031704;28;20420;-72
2021/08/28 04:14:21;;;;;;;7.70;6.63;;;;;;;;;;5033184;28;20789;-73
2021/08/28 04:16:47;;;;;;;7.40;6.70;;;;;;;;;;5032117;28;20471;-73
2021/08/28 04:19:13;;;;;;;8.57;7.67;;;;;;;;;;5034233;28;20419;-72
2021/08/28 04:21:39;;;;;;;8.83;7.40;;;;;;;;;;5034714;28;20423;-72
2021/08/28 04:24:05;;;;;;;7.60;6.80;;;;;;;;;;5034148;28;20408;-71
2021/08/28 04:26:31;;;;;;;7.60;6.67;;;;;;;;;;5034024;28;20825;-73
2021/08/28 04:28:57;;;;;;;8.97;7.67;;;;;;;;;;5034246;28;20463;-73
2021/08/28 04:31:24;;;;;;;8.30;7.00;;;;;;;;;;5033878;28;20429;-70
2021/08/28 04:33:50;;;;;;;7.17;6.47;;;;;;;;;;5033512;28;20519;-72
2021/08/28 04:36:16;;;;;;;9.57;6.83;;;;;;;;;;5034307;28;20486;-71
2021/08/28 04:38:42;;;;;;;6.70;6.00;;;;;;;;;;5033448;28;20431;-72
2021/08/28 04:41:08;;;;;;;6.70;6.10;;;;;;;;;;5030221;28;20455;-72
2021/08/28 04:43:34;;;;;;;7.07;6.23;;;;;;;;;;5034110;28;20446;-72
2021/08/28 04:46:00;;;;;;;6.90;6.20;;;;;;;;;;5034123;28;20421;-71
2021/08/28 04:48:27;;;;;;;6.83;5.50;;;;;;;;;;5033428;28;20467;-72
2021/08/28 04:50:53;;;;;;;7.30;6.53;;;;;;;;;;5031998;28;20471;-72
2021/08/28 04:53:19;;;;;;;6.73;5.67;;;;;;;;;;5018781;28;20427;-72
2021/08/28 04:55:45;;;;;;;6.93;6.03;;;;;;;;;;5026293;28;20420;-71
2021/08/28 04:58:12;;;;;;;6.33;5.73;;;;;;;;;;5033605;28;20519;-70
2021/08/28 05:00:38;;;;;;;6.13;5.50;;;;;;;;;;5033140;28;20425;-73
2021/08/28 05:03:04;;;;;;;6.37;5.43;;;;;;;;;;5033746;28;20431;-73
2021/08/28 05:05:30;;;;;;;6.27;5.67;;;;;;;;;;5032087;28;20909;-72
2021/08/28 05:07:56;;;;;;;5.97;5.40;;;;;;;;;;5032720;28;20543;-73
2021/08/28 05:10:23;;;;;;;6.57;5.93;;;;;;;;;;5023853;28;20515;-73
2021/08/28 05:12:50;;;;;;;6.83;6.03;;;;;;;;;;5033573;28;20544;-72
2021/08/28 05:15:16;;;;;;;6.27;5.10;;;;;;;;;;5033420;28;20428;-73
2021/08/28 05:17:42;;;;;;;6.43;5.40;;;;;;;;;;5026885;28;20438;-74
2021/08/28 05:20:08;;;;;;;6.37;5.57;;;;;;;;;;5042871;28;20446;-73
2021/08/28 05:22:34;;;;;;;6.15;5.55;;;;;;;;;;5038689;28;20422;-73
2021/08/28 05:25:00;;;;;;;6.00;5.40;;;;;;;;;;5041780;28;20165;-72
2021/08/28 05:27:26;;;;;;;8.50;5.90;;;;;;;;;;5033092;28;20428;-72
2021/08/28 05:29:52;;;;;;;9.30;7.47;;;;;;;;;;5036276;28;20429;-73
2021/08/28 05:32:18;;;;;;;8.80;8.00;;;;;;;;;;5032806;28;20482;-71
2021/08/28 05:34:44;;;;;;;10.63;8.13;;;;;;;;;;5033180;28;20475;-72
2021/08/28 05:37:10;;;;;;;9.50;7.73;;;;;;;;;;5033091;28;20444;-73
2021/08/28 05:39:36;;;;;;;14.30;9.20;;;;;;;;;;5033313;28;20484;-73
2021/08/28 05:42:02;;;;;;;12.80;8.83;;;;;;;;;;5033432;28;20417;-72
2021/08/28 05:44:28;;;;;;;11.00;9.60;;;;;;;;;;5032975;28;20479;-72
2021/08/28 05:46:54;;;;;;;12.67;10.33;;;;;;;;;;5032892;28;20536;-72
2021/08/28 05:49:20;;;;;;;13.77;11.13;;;;;;;;;;5033341;28;20469;-72
2021/08/28 05:51:46;;;;;;;14.53;12.10;;;;;;;;;;5024065;28;20414;-72
2021/08/28 05:54:12;;;;;;;14.10;11.37;;;;;;;;;;5030979;28;20505;-74
2021/08/28 05:56:38;;;;;;;16.27;13.20;;;;;;;;;;5032502;28;20960;-71
2021/08/28 05:59:04;;;;;;;21.20;12.97;;;;;;;;;;5032925;28;20539;-72
2021/08/28 06:01:30;;;;;;;20.40;13.70;;;;;;;;;;5033172;28;20443;-71
2021/08/28 06:03:56;;;;;;;14.60;12.53;;;;;;;;;;5035560;28;20903;-71
2021/08/28 06:06:22;;;;;;;16.13;12.73;;;;;;;;;;5035509;28;20464;-74
2021/08/28 06:08:48;;;;;;;16.37;13.33;;;;;;;;;;5033055;28;20457;-74
2021/08/28 06:11:14;;;;;;;20.13;14.07;;;;;;;;;;5026974;28;20908;-74
2021/08/28 06:13:40;;;;;;;19.20;15.60;;;;;;;;;;5030337;28;20439;-70
2021/08/28 06:16:06;;;;;;;24.33;14.80;;;;;;;;;;5032685;28;20547;-72
2021/08/28 06:18:32;;;;;;;20.60;15.00;;;;;;;;;;5050360;28;20761;-72
2021/08/28 06:21:01;;;;;;;17.63;13.93;;;;;;;;;;5052374;28;20454;-72
2021/08/28 06:23:27;;;;;;;18.00;13.97;;;;;;;;;;5052659;28;20448;-72
2021/08/28 06:25:53;;;;;;;19.47;14.43;;;;;;;;;;5052509;28;20409;-72
2021/08/28 06:28:19;;;;;;;17.30;13.77;;;;;;;;;;5033960;28;20562;-72
2021/08/28 06:30:45;;;;;;;15.77;13.67;;;;;;;;;;5032531;28;20504;-74
2021/08/28 06:33:11;;;;;;;16.43;13.93;;;;;;;;;;5032503;28;20613;-72
2021/08/28 06:35:37;;;;;;;17.47;13.63;;;;;;;;;;5032481;28;20766;-73
2021/08/28 06:38:03;;;;;;;17.57;14.00;;;;;;;;;;5032089;28;20438;-74
2021/08/28 06:40:29;;;;;;;14.23;12.60;;;;;;;;;;5033603;28;21018;-74
2021/08/28 06:42:55;;;;;;;22.80;18.30;;;;;;;;;;5036251;28;20419;-73
2021/08/28 06:45:21;;;;;;;17.97;14.50;;;;;;;;;;5036203;28;20828;-73
2021/08/28 06:47:47;;;;;;;15.73;13.13;;;;;;;;;;5035785;28;20462;-74
2021/08/28 06:50:13;;;;;;;17.20;12.13;;;;;;;;;;5036057;28;20895;-74
2021/08/28 06:52:39;;;;;;;16.53;13.60;;;;;;;;;;5023567;28;20422;-75
2021/08/28 06:55:06;;;;;;;34.37;28.00;;;;;;;;;;5034965;28;20424;-73
2021/08/28 06:57:32;;;;;;;58.37;42.07;;;;;;;;;;5039792;28;20535;-72
2021/08/28 06:59:58;;;;;;;45.90;36.77;;;;;;;;;;5027662;28;20461;-74
2021/08/28 07:02:24;;;;;;;13.90;12.40;;;;;;;;;;5032259;28;20561;-73
2021/08/28 07:04:51;;;;;;;17.87;13.57;;;;;;;;;;5031641;28;20462;-73
2021/08/28 07:07:17;;;;;;;14.00;10.83;;;;;;;;;;5048570;28;20444;-74
2021/08/28 07:09:42;;;;;;;12.57;9.70;;;;;;;;;;5046024;28;20500;-73
2021/08/28 07:12:09;;;;;;;11.80;9.77;;;;;;;;;;5031918;28;20786;-74
2021/08/28 07:14:35;;;;;;;11.83;9.73;;;;;;;;;;5032058;28;20427;-72
2021/08/28 07:17:01;;;;;;;10.77;9.20;;;;;;;;;;5031479;28;20932;-72
2021/08/28 07:19:27;;;;;;;13.03;11.13;;;;;;;;;;5027890;28;20833;-73
2021/08/28 07:21:53;;;;;;;14.37;11.90;;;;;;;;;;5028531;28;20427;-71
2021/08/28 07:24:19;;;;;;;30.30;27.23;;;;;;;;;;5032044;28;20832;-72
2021/08/28 07:26:45;;;;;;;44.93;37.17;;;;;;;;;;5031493;28;20477;-73
2021/08/28 07:29:11;;;;;;;11.47;10.27;;;;;;;;;;5031901;28;20523;-73
2021/08/28 07:31:37;;;;;;;11.60;10.37;;;;;;;;;;5031814;28;20420;-72
2021/08/28 07:34:03;;;;;;;12.80;10.43;;;;;;;;;;5031988;28;20817;-75
2021/08/28 07:36:29;;;;;;;10.27;8.53;;;;;;;;;;5020548;28;20450;-74
2021/08/28 07:38:55;;;;;;;9.87;8.77;;;;;;;;;;5051498;28;20488;-73
2021/08/28 07:41:21;;;;;;;11.60;9.00;;;;;;;;;;5035030;28;20518;-72
2021/08/28 07:43:47;;;;;;;13.47;9.43;;;;;;;;;;5031867;28;20415;-73
2021/08/28 07:46:13;;;;;;;10.37;9.37;;;;;;;;;;5031341;28;20434;-73
2021/08/28 07:48:39;;;;;;;14.13;10.40;;;;;;;;;;5030264;28;20463;-73
2021/08/28 07:51:05;;;;;;;11.83;10.63;;;;;;;;;;5030028;28;20448;-71
2021/08/28 07:53:31;;;;;;;15.20;8.50;;;;;;;;;;5030960;28;20436;-73
2021/08/28 07:55:57;;;;;;;10.10;8.20;;;;;;;;;;5031134;28;20424;-73
2021/08/28 07:58:23;;;;;;;8.23;7.40;;;;;;;;;;5030956;28;20797;-75
2021/08/28 08:00:49;;;;;;;8.80;7.30;;;;;;;;;;5031058;28;20444;-74
2021/08/28 08:03:15;;;;;;;9.43;8.00;;;;;;;;;;5031181;28;20423;-73
2021/08/28 08:05:42;;;;;;;11.33;8.30;;;;;;;;;;5033094;28;20455;-73
2021/08/28 08:08:08;;;;;;;9.07;7.70;;;;;;;;;;5050635;28;20467;-74
2021/08/28 08:10:34;;;;;;;8.70;7.37;;;;;;;;;;5050864;28;20422;-73
2021/08/28 08:13:00;;;;;;;7.90;7.10;;;;;;;;;;5042345;28;21181;-73
2021/08/28 08:15:27;;;;;;;8.10;7.30;;;;;;;;;;5029403;28;20424;-74
2021/08/28 08:17:54;;;;;;;8.53;7.40;;;;;;;;;;5030291;28;20450;-74
2021/08/28 08:20:20;;;;;;;7.53;6.53;;;;;;;;;;5046554;28;20762;-74
2021/08/28 08:22:46;;;;;;;7.50;6.27;;;;;;;;;;5050740;28;20418;-74
2021/08/28 08:25:12;;;;;;;7.07;6.33;;;;;;;;;;5033199;28;20421;-74
2021/08/28 08:27:38;;;;;;;6.70;6.00;;;;;;;;;;5030308;28;20485;-74
2021/08/28 08:30:05;;;;;;;5.53;5.03;;;;;;;;;;5031486;28;20838;-74
2021/08/28 08:32:31;;;;;;;6.50;5.90;;;;;;;;;;5030726;28;20439;-74
2021/08/28 08:34:57;;;;;;;6.90;6.20;;;;;;;;;;5030619;28;20425;-73
2021/08/28 08:37:23;;;;;;;6.40;5.80;;;;;;;;;;5030240;28;20933;-74
2021/08/28 08:39:49;;;;;;;6.63;6.03;;;;;;;;;;5030613;28;20831;-74
2021/08/28 08:42:17;;;;;;;6.13;5.50;;;;;;;;;;5030398;28;20435;-73
2021/08/28 08:44:45;;;;;;;5.47;4.97;;;;;;;;;;5030211;28;20460;-74
2021/08/28 08:47:12;;;;;;;5.73;5.23;;;;;;;;;;5047708;28;20948;-74
2021/08/28 08:49:39;;;;;;;6.90;5.07;;;;;;;;;;5050269;28;20824;-73
2021/08/28 08:52:05;;;;;;;5.30;4.87;;;;;;;;;;5031761;28;20879;-73
2021/08/28 08:54:32;;;;;;;5.23;4.73;;;;;;;;;;5030454;28;20867;-73
2021/08/28 08:56:58;;;;;;;5.17;4.67;;;;;;;;;;5034977;28;20447;-73
2021/08/28 08:59:24;;;;;;;4.20;3.90;;;;;;;;;;5049924;28;20439;-72
2021/08/28 09:01:50;;;;;;;4.90;4.50;;;;;;;;;;5050034;28;20851;-72
2021/08/28 09:04:17;;;;;;;5.30;4.80;;;;;;;;;;5049747;28;20434;-73
2021/08/28 09:06:46;;;;;;;5.20;4.70;;;;;;;;;;5049434;28;20463;-73
2021/08/28 09:09:15;;;;;;;5.00;4.50;;;;;;;;;;5030498;28;20514;-73
2021/08/28 09:12:14;;;;;;;4.77;4.37;;;;;;;;;;5030003;28;20492;-72
2021/08/28 09:14:41;;;;;;;3.90;3.60;;;;;;;;;;5002598;28;20459;-72
2021/08/28 09:17:33;;;;;;;4.23;3.83;;;;;;;;;;5029585;28;20432;-72
2021/08/28 09:20:01;;;;;;;4.30;3.90;;;;;;;;;;5028025;28;20435;-72
2021/08/28 09:22:29;;;;;;;4.20;3.80;;;;;;;;;;5029795;28;20419;-72
2021/08/28 09:25:03;;;;;;;3.90;3.50;;;;;;;;;;5029701;28;20777;-72
2021/08/28 09:27:40;;;;;;;4.63;4.23;;;;;;;;;;5029015;28;20471;-72
2021/08/28 09:30:17;;;;;;;6.47;4.17;;;;;;;;;;5029668;28;20415;-74
2021/08/28 09:32:47;;;;;;;5.50;4.63;;;;;;;;;;5029373;28;20412;-72
2021/08/28 09:35:14;;;;;;;4.40;4.00;;;;;;;;;;5029615;28;20404;-73
2021/08/28 09:37:40;;;;;;;4.27;3.87;;;;;;;;;;5029135;28;21112;-73
2021/08/28 09:40:06;;;;;;;3.77;3.47;;;;;;;;;;5029493;28;20418;-73
2021/08/28 09:42:32;;;;;;;4.60;3.73;;;;;;;;;;5029239;28;20465;-74
2021/08/28 09:45:08;;;;;;;3.50;3.20;;;;;;;;;;5029496;28;20415;-72
2021/08/28 09:47:34;;;;;;;3.90;3.50;;;;;;;;;;5028986;28;20784;-72
2021/08/28 09:50:00;;;;;;;4.27;3.87;;;;;;;;;;5029276;28;20459;-73
2021/08/28 09:52:27;;;;;;;3.10;2.80;;;;;;;;;;5029118;28;20912;-73
2021/08/28 09:54:54;;;;;;;3.20;2.90;;;;;;;;;;5029232;28;20431;-74
2021/08/28 09:57:21;;;;;;;3.33;2.97;;;;;;;;;;5036093;28;20513;-73
2021/08/28 09:59:48;;;;;;;3.70;3.40;;;;;;;;;;5048994;28;20414;-73
2021/08/28 10:02:17;;;;;;;3.47;3.17;;;;;;;;;;5049529;28;20764;-73
2021/08/28 10:04:56;;;;;;;3.57;3.27;;;;;;;;;;5049202;28;20415;-73
2021/08/28 10:07:30;;;;;;;3.30;3.00;;;;;;;;;;5048833;28;20799;-73
2021/08/28 10:09:57;;;;;;;4.80;4.17;;;;;;;;;;5049002;28;20466;-73
2021/08/28 10:12:23;;;;;;;3.30;3.00;;;;;;;;;;5049253;28;20415;-73
2021/08/28 10:14:51;;;;;;;3.80;3.50;;;;;;;;;;5049041;28;20447;-73
2021/08/28 10:17:18;;;;;;;6.47;5.87;;;;;;;;;;5052945;28;20626;-73
2021/08/28 10:19:45;;;;;;;3.50;3.20;;;;;;;;;;5053149;28;20415;-73
2021/08/28 10:22:13;;;;;;;5.13;4.63;;;;;;;;;;5053319;28;20417;-72
2021/08/28 10:24:41;;;;;;;7.17;6.50;;;;;;;;;;5042316;28;20425;-73
2021/08/28 10:27:08;;;;;;;4.60;4.20;;;;;;;;;;5038915;28;20447;-74
2021/08/28 10:29:34;;;;;;;6.37;5.77;;;;;;;;;;5032688;28;20503;-74
2021/08/28 10:32:00;;;;;;;3.73;3.43;;;;;;;;;;5045190;28;20473;-72
2021/08/28 10:34:26;;;;;;;5.53;5.03;;;;;;;;;;5052626;28;20518;-71
2021/08/28 10:36:52;;;;;;;5.07;4.57;;;;;;;;;;5052484;28;20556;-72
2021/08/28 10:39:19;;;;;;;5.07;4.57;;;;;;;;;;5052577;28;20419;-72
2021/08/28 10:41:45;;;;;;;5.90;5.33;;;;;;;;;;5034647;28;20432;-73
2021/08/28 10:44:11;;;;;;;6.70;6.10;;;;;;;;;;5032580;28;20466;-72
2021/08/28 10:46:41;;;;;;;4.57;4.17;;;;;;;;;;5032257;28;20865;-73
2021/08/28 10:49:07;;;;;;;3.90;3.60;;;;;;;;;;5032236;28;20496;-73
2021/08/28 10:51:34;;;;;;;4.10;3.37;;;;;;;;;;5032358;28;20773;-74
2021/08/28 10:54:09;;;;;;;3.60;3.30;;;;;;;;;;5032155;28;20430;-74
2021/08/28 10:56:36;;;;;;;3.60;3.30;;;;;;;;;;5035225;28;20485;-72
2021/08/28 10:59:35;;;;;;;4.63;3.60;;;;;;;;;;5038046;28;20460;-74
2021/08/28 11:02:10;;;;;;;3.67;2.83;;;;;;;;;;5018721;28;20428;-73
2021/08/28 11:04:43;;;;;;;3.53;3.23;;;;;;;;;;5031321;28;20514;-74
2021/08/28 11:07:19;;;;;;;3.97;3.67;;;;;;;;;;5032127;28;20428;-74
2021/08/28 11:10:02;;;;;;;4.47;3.87;;;;;;;;;;5031519;28;20558;-74
2021/08/28 11:12:28;;;;;;;4.43;4.03;;;;;;;;;;5032126;28;20424;-75
2021/08/28 11:14:54;;;;;;;7.60;6.63;;;;;;;;;;5031413;28;20501;-74
2021/08/28 11:17:36;;;;;;;5.20;4.70;;;;;;;;;;5031823;28;20476;-73
2021/08/28 11:20:03;;;;;;;5.23;4.83;;;;;;;;;;5031539;28;20428;-74
2021/08/28 11:22:34;;;;;;;4.87;3.03;;;;;;;;;;5031946;28;20419;-73
2021/08/28 11:25:00;;;;;;;4.00;3.60;;;;;;;;;;5031344;28;20502;-73
2021/08/28 11:27:37;;;;;;;2.73;2.33;;;;;;;;;;5031069;28;20432;-73
2021/08/28 11:30:04;;;;;;;3.17;2.80;;;;;;;;;;5028576;28;20459;-74
2021/08/28 11:32:30;;;;;;;3.70;2.53;;;;;;;;;;5047409;28;20424;-74
2021/08/28 11:34:57;;;;;;;3.00;2.70;;;;;;;;;;5030588;28;20425;-73
2021/08/28 11:37:28;;;;;;;2.97;2.67;;;;;;;;;;5047663;28;20504;-74
2021/08/28 11:39:58;;;;;;;3.00;2.70;;;;;;;;;;5031905;28;20530;-74
2021/08/28 11:42:25;;;;;;;3.60;2.90;;;;;;;;;;5031533;28;20448;-73
2021/08/28 11:44:52;;;;;;;3.83;2.77;;;;;;;;;;5031012;28;20943;-73
2021/08/28 11:47:19;;;;;;;3.53;2.50;;;;;;;;;;5031193;28;20493;-75
2021/08/28 11:49:45;;;;;;;2.70;2.50;;;;;;;;;;5024896;28;20469;-74
2021/08/28 11:52:11;;;;;;;3.20;2.90;;;;;;;;;;5047798;28;20461;-74
2021/08/28 11:54:38;;;;;;;3.73;2.67;;;;;;;;;;5039623;28;20430;-74
2021/08/28 11:57:04;;;;;;;2.87;2.67;;;;;;;;;;5034074;28;20436;-74
2021/08/28 11:59:38;;;;;;;3.97;3.13;;;;;;;;;;5030226;28;20498;-74
2021/08/28 12:02:06;;;;;;;3.13;2.83;;;;;;;;;;5018563;28;20408;-74
2021/08/28 12:04:33;;;;;;;3.10;2.80;;;;;;;;;;5029231;28;20774;-74
2021/08/28 12:07:00;;;;;;;2.17;1.80;;;;;;;;;;5030733;28;20543;-74
2021/08/28 12:09:26;;;;;;;2.40;2.00;;;;;;;;;;5030574;28;20511;-74
2021/08/28 12:11:53;;;;;;;6.20;5.60;;;;;;;;;;5031218;28;20420;-74
2021/08/28 12:14:20;;;;;;;2.60;1.90;;;;;;;;;;5030610;28;20462;-74
2021/08/28 12:16:46;;;;;;;2.20;1.60;;;;;;;;;;5030615;28;20436;-74
2021/08/28 12:19:16;;;;;;;9.80;7.50;;;;;;;;;;5030439;28;20521;-73
2021/08/28 12:21:44;;;;;;;4.23;3.83;;;;;;;;;;5050957;28;20773;-74
2021/08/28 12:24:13;;;;;;;9.37;8.50;;;;;;;;;;5036622;28;20440;-74
2021/08/28 12:26:39;;;;;;;2.40;1.90;;;;;;;;;;5050430;28;20438;-74
2021/08/28 12:29:05;;;;;;;2.20;1.80;;;;;;;;;;5041964;28;20999;-74
2021/08/28 12:31:32;;;;;;;2.50;1.57;;;;;;;;;;5030288;28;20460;-75
2021/08/28 12:34:18;;;;;;;2.30;2.00;;;;;;;;;;5029934;28;20467;-73
2021/08/28 12:36:45;;;;;;;3.80;3.43;;;;;;;;;;5030364;28;20463;-73
2021/08/28 12:39:11;;;;;;;4.23;2.80;;;;;;;;;;5033098;28;20437;-74
2021/08/28 12:41:38;;;;;;;2.87;2.00;;;;;;;;;;5033490;28;20510;-74
2021/08/28 12:44:05;;;;;;;2.20;1.80;;;;;;;;;;5029892;28;20425;-74
2021/08/28 12:46:32;;;;;;;3.30;1.97;;;;;;;;;;5030278;28;20436;-74
2021/08/28 12:49:10;;;;;;;7.17;3.87;;;;;;;;;;5026858;28;20464;-74
2021/08/28 12:51:36;;;;;;;2.67;2.20;;;;;;;;;;5031301;28;20774;-74
2021/08/28 12:54:02;;;;;;;3.10;2.80;;;;;;;;;;5050364;28;20785;-74
2021/08/28 12:56:29;;;;;;;4.27;3.87;;;;;;;;;;5039410;28;20444;-73
2021/08/28 12:58:55;;;;;;;3.43;2.50;;;;;;;;;;5030034;28;20420;-73
2021/08/28 13:01:21;;;;;;;5.00;3.93;;;;;;;;;;5029604;28;20424;-73
2021/08/28 13:03:50;;;;;;;8.60;3.47;;;;;;;;;;5029416;28;20798;-72
2021/08/28 13:06:23;;;;;;;3.63;2.90;;;;;;;;;;5029179;28;20455;-72
2021/08/28 13:08:49;;;;;;;3.80;2.50;;;;;;;;;;5029465;28;20463;-73
2021/08/28 13:11:26;;;;;;;6.60;5.90;;;;;;;;;;5029826;28;20420;-73
2021/08/28 13:13:58;;;;;;;5.37;4.43;;;;;;;;;;5020830;28;20432;-73
2021/08/28 13:16:24;;;;;;;3.63;2.90;;;;;;;;;;5029298;28;20428;-73
2021/08/28 13:19:09;;;;;;;3.23;2.93;;;;;;;;;;5029629;28;20782;-74
2021/08/28 13:21:38;;;;;;;3.30;2.97;;;;;;;;;;5029213;28;20979;-73
2021/08/28 13:24:11;;;;;;;3.20;2.80;;;;;;;;;;5029651;28;20460;-73
2021/08/28 13:26:56;;;;;;;2.23;2.00;;;;;;;;;;5028720;28;20476;-74
2021/08/28 13:29:36;;;;;;;3.00;2.20;;;;;;;;;;5029653;28;20514;-72
2021/08/28 13:32:13;;;;;;;2.20;1.93;;;;;;;;;;5028856;28;20446;-73
2021/08/28 13:34:40;;;;;;;2.23;2.03;;;;;;;;;;5029761;28;20412;-73
2021/08/28 13:37:07;;;;;;;2.30;2.10;;;;;;;;;;5028423;28;20786;-74
2021/08/28 13:39:33;;;;;;;2.50;2.30;;;;;;;;;;5029845;28;20425;-75
2021/08/28 13:41:59;;;;;;;3.17;2.40;;;;;;;;;;5028900;28;20424;-75
2021/08/28 13:44:26;;;;;;;2.40;1.70;;;;;;;;;;5021779;28;20918;-74
2021/08/28 13:46:52;;;;;;;2.03;1.53;;;;;;;;;;5037092;28;20490;-74
2021/08/28 13:49:18;;;;;;;2.60;1.80;;;;;;;;;;5018571;28;21252;-74
2021/08/28 13:51:44;;;;;;;3.33;1.97;;;;;;;;;;5029431;28;21086;-74
2021/08/28 13:54:10;;;;;;;2.60;1.80;;;;;;;;;;5028824;28;20448;-73
2021/08/28 13:56:36;;;;;;;2.40;1.90;;;;;;;;;;5029861;28;20471;-74
2021/08/28 13:59:02;;;;;;;2.90;1.93;;;;;;;;;;5029656;28;20423;-73
2021/08/28 14:01:28;;;;;;;3.03;2.00;;;;;;;;;;5047714;28;20855;-73
2021/08/28 14:03:54;;;;;;;2.23;2.00;;;;;;;;;;5033126;28;20462;-73
2021/08/28 14:06:20;;;;;;;3.70;1.83;;;;;;;;;;5048950;28;20520;-73
2021/08/28 14:08:46;;;;;;;2.00;1.70;;;;;;;;;;5032959;28;20973;-74
2021/08/28 14:11:12;;;;;;;2.33;1.80;;;;;;;;;;5029311;28;20432;-73
2021/08/28 14:13:38;;;;;;;2.90;1.97;;;;;;;;;;5028350;28;20428;-73
2021/08/28 14:16:04;;;;;;;2.23;1.60;;;;;;;;;;5029111;28;20451;-75
2021/08/28 14:18:30;;;;;;;2.80;2.10;;;;;;;;;;5028079;28;20425;-73
2021/08/28 14:20:56;;;;;;;3.77;2.60;;;;;;;;;;5017233;28;20954;-74
2021/08/28 14:23:23;;;;;;;4.63;2.63;;;;;;;;;;5047705;28;20822;-73
2021/08/28 14:25:49;;;;;;;4.80;2.70;;;;;;;;;;5028463;28;20842;-74
2021/08/28 14:28:15;;;;;;;3.40;2.10;;;;;;;;;;5028631;28;20470;-73
2021/08/28 14:30:41;;;;;;;3.50;3.20;;;;;;;;;;5028446;28;20495;-73
2021/08/28 14:33:08;;;;;;;4.70;4.30;;;;;;;;;;5029233;28;20496;-73
2021/08/28 14:35:34;;;;;;;3.57;3.27;;;;;;;;;;5028647;28;20424;-73
2021/08/28 14:38:00;;;;;;;3.57;3.27;;;;;;;;;;5028237;28;20590;-74
2021/08/28 14:40:26;;;;;;;3.20;2.90;;;;;;;;;;5029027;28;20427;-74